Florida AWOS List, Phone Numbers

USA |  
| Search AWOS

Rocky Mountain States: Montana | Wyoming | Colorado | New Mexico

Complete weather reports: Florida

Legend: KFNL = METAR available Follow your local AWOS on AV Mobile = METAR available on AV Mobile
Station Florida Location Frequency Phone
KAQQICAO ID KAQQ Apalachicola, Apalachicola
KAAFFAA ID AAF, ASOS, KAAF 281753Z AUTO 34014G18KT 10SM CLR 19/M01 A3019 Follow KAAF on AV Mobile APALACHICOLA MUNICIPAL AIRPORT 119.925 850-653-8271
KNAEICAO ID KNAE Astor, Bombing Range Detachment Astor
KAVOFAA ID AVO, AWOS-3 AVON PARK 118.725 863-453-4223
KAGRFAA ID AGR Avon Park Gunnery Range
KBOWFAA ID BOW, AWOS-3, KBOW 281747Z 29015G25KT 10SM FEW110 BKN200 18/02 A3017 Follow KBOW on AV Mobile Bartow Municipal 123.775 863-533-9004
F95FAA ID F95, AWOS-AV, KTEX 070640Z AUTO 15005KT 10SM CLR 02/M16 A3038 RMK AO2 T00201164 Follow  on AV Mobile BLOUNTSTOWN 119.350 850-674-1347
KBCTFAA ID BCT, AWOS-3, KBCT 281750Z 32015G21KT 10SM CLR 21/06 A3015 Follow KBCT on AV Mobile Boca Raton, Boca Raton Airport 121.125 561-391-2696
K1J0FAA ID 1J0, K1J0 281758Z AUTO VRB03KT 10SM CLR 15/M04 A3023 RMK AO2 SLP220 T01501039 10156 20044 58006 Follow K1J0 on AV Mobile TRI COUNTY AIRPORT
KBKVFAA ID BKV, ASOS, KBKV 281753Z 29016G21KT 10SM CLR 18/06 A3018 RMK AO2 SLP219 T01830061 10183 20083 58003 $ Follow KBKV on AV Mobile BROOKSVILLE HERNANDO CO AIRPORT 134.725 352-799-5881
K1J4ICAO ID K1J4 Cape San Blas Coast Guard Station
KNZCICAO ID KNZC Cecil, Naval Air Station
2ISFAA ID 2IS, AWOS-3, KTEX 070640Z AUTO 15005KT 10SM CLR 02/M16 A3038 RMK AO2 T00201164 Follow  on AV Mobile CLEWISTON 124.175 863-983-7020
KX53ICAO ID KX53 Clewiston
KCOFFAA ID COF, KCOF 281758Z AUTO 29015KT 10SM CLR 19/00 A3013 RMK AO2 SLP207 T01881001 10188 20134 58008 $ Follow KCOF on AV Mobile Cocoa / Patrick Air Force Base
KXMRFAA ID XMR, KXMR 281816Z AUTO 32012KT 10SM FEW100 18/01 A3013 RMK AO2 WSHFT 14 Follow KXMR on AV Mobile Cocoa Beach, Cape Canaveral Air Force Station Skid Strip
KCEWFAA ID CEW, ASOS, KCEW 281753Z AUTO 28007KT 10SM CLR 15/M03 A3024 Follow KCEW on AV Mobile CRESTVIEW SIKES AIRPORT 119.275 850-682-1237
KEGIFAA ID EGI, KEGI 281755Z 33008KT 10SM SCT220 15/M04 A3022 RMK AO2A SLP236 T01491041 10151 20047 57012 $ Follow KEGI on AV Mobile Duke Field / Eglin Auxiliary
KCTYFAA ID CTY, KCTY 281753Z AUTO 31014G20KT 18/M02 A3015 Follow KCTY on AV Mobile CROSS CITY AIRPORT
KCGCFAA ID CGC, AWOS-3, KCGC 281835Z AUTO 27013G18KT 10SM CLR 16/03 A3016 RMK AO2 Follow KCGC on AV Mobile CRYSTAL RIVER 118.325 352-563-6600
KDABFAA ID DAB, ASOS, KDAB 281753Z VRB06KT 10SM SCT250 17/02 A3013 Follow KDAB on AV Mobile DAYTONA BEACH INTERNATIONAL 386-253-7469
54JFAA ID 54J, AWOS-3P, KTEX 070640Z AUTO 15005KT 10SM CLR 02/M16 A3038 RMK AO2 T00201164 Follow  on AV Mobile DEFUNIAK SPRINGS 118.725 850-892-0147
KDEDFAA ID DED, AWOS-3, KDED 281835Z AUTO 26011G16KT 10SM 19/M02 A3014 RMK AO1 Follow KDED on AV Mobile DELAND 119.575 386-740-5811
KDTSFAA ID DTS, ASOS, KDTS 281753Z AUTO 35008KT 10SM CLR 16/M01 A3022 RMK AO2 SLP232 T01611006 10161 20072 58014 TSNO Follow KDTS on AV Mobile DESTIN-FT WALTON BEACH AIRPORT 133.925 850-654-7128
KX91ICAO ID KX91 Egmont Key Coast Guard Station
KFHBFAA ID FHB, AWOS-3, KFHB 281835Z AUTO 28015G23KT 10SM CLR 18/00 A3009 RMK AO1 Follow KFHB on AV Mobile FERNANDINA BEACH 118.075 904-277-7323
KFXEFAA ID FXE, ASOS, KFXE 281753Z COR 31012G21KT 10SM BKN230 21/06 A3015 Follow KFXE on AV Mobile FORT LAUDERDALE EXECUTIVE 954-772-2537
KFLLFAA ID FLL, ASOS, KFLL 281753Z 32013G19KT 10SM SCT120 BKN250 22/08 A3013 Follow KFLL on AV Mobile FORT LAUDERDALE/HOLLYWOOD 954-359-7857
KFMYFAA ID FMY, ASOS, KFMY 281753Z 34010G18KT 10SM CLR 21/07 A3016 RMK AO2 SLP215 T02110072 10217 20144 58004 Follow KFMY on AV Mobile FORT MYERS PAGE FIELD 239-936-2318
KRSWFAA ID RSW, ASOS, KRSW 281753Z 32007G15KT 10SM CLR 21/08 A3017 Follow KRSW on AV Mobile FORT MYERS SW FL INTERNATIONAL AIRPORT 239-561-0966
KX82ICAO ID KX82 Fort Pierce Coast Guard Station
KFPRFAA ID FPR, ASOS, KFPR 281753Z 29016G22KT 10SM CLR 21/01 A3013 Follow KFPR on AV Mobile FORT PIERCE ST LUCIE 772-489-4281
KX86ICAO ID KX86 Fowey Rocks Coast Guard Station
KX89ICAO ID KX89 Ft. Myers Beach Coast Guard Station
KGNVFAA ID GNV, ASOS, KGNV 281753Z 31011G16KT 10SM CLR 17/01 A3013 Follow KGNV on AV Mobile GAINESVILLE REGIONAL AIRPORT 352-335-8672
KHWOFAA ID HWO, ASOS, KHWO 281753Z 33015G22KT 10SM CLR 22/06 A3016 RMK AO2 SLP212 T02220061 10233 20167 58004 Follow KHWO on AV Mobile HOLLYWOOD NORTH PERRY AIRPORT 954-983-5904
X51FAA ID X51, AWOS-3, KTEX 070640Z AUTO 15005KT 10SM CLR 02/M16 A3038 RMK AO2 T00201164 Follow  on AV Mobile HOMESTEAD 118.375 (305) 247-2791
KHSTFAA ID HST, KHST 281803Z AUTO 33012G16KT 10SM FEW130 SCT160 SCT200 22/07 A3014 RMK AO2 WSHFT 1753 Follow KHST on AV Mobile Homestead Air Force Base
KIMMFAA ID IMM, AWOS-3, KIMM 281835Z AUTO 33009G16KT 9SM CLR A3017 RMK A01 P000 Follow KIMM on AV Mobile IMMOKALEE 118.525 239-657-2038
KINFFAA ID INF, AWOS-3, KINF 281835Z AUTO 27004KT 10SM CLR A3016 RMK AO2 Follow KINF on AV Mobile INVERNESS 119.975 352-341-0264
KX84ICAO ID KX84 Islamorada Coast Guard Station
KHEGFAA ID HEG, AWOS-3 JACKSONVILLE 119.275 904-695-0334
KCRGFAA ID CRG, ASOS, KCRG 281753Z 29013G26KT 10SM CLR 16/00 A3012 RMK AO2 PK WND 30026/1747 SLP199 T01610000 10161 20089 58015 Follow KCRG on AV Mobile JACKSONVILLE CRAIG MUN 904-646-4670
KJAXFAA ID JAX, ASOS, KJAX 281756Z 27014G23KT 10SM FEW030 FEW250 16/01 A3013 Follow KJAX on AV Mobile JACKSONVILLE INTERNATIONAL 904-741-4304
KNIPFAA ID NIP, KNIP 281753Z 27010KT 10SM FEW070 FEW250 18/M02 A3013 RMK AO2 SLP199 T01781022 10178 20094 58014 $ Follow KNIP on AV Mobile JACKSONVILLE NAVAL AIR STN
KVQQFAA ID VQQ, AWOS-3, KVQQ 281750Z 29008KT 10SM CLR 16/00 A3014 Follow KVQQ on AV Mobile Jacksonville, Cecil Field Airport 125.275 904-778-6934
KNENFAA ID NEN NOLF WHITEHOUSE FIELD, FL
KX80ICAO ID KX80 Jupiter Inlet Coast Guard Station
KEYWFAA ID EYW, ASOS, KEYW 281753Z 01011KT 10SM SCT033 22/14 A3018 Follow KEYW on AV Mobile KEY WEST INTERNATIONAL AIRPORT 119.65 305-292-4046
KNQXFAA ID NQX, KNQX 281753Z 02012G17KT 10SM BKN034 BKN150 23/13 A3017 RMK AO2 SLP216 T02280133 10228 20206 50004 $ Follow KNQX on AV Mobile KEY WEST NAVAL AIR STATION
K42JFAA ID 42J, AWOS-3, K42J 281835Z AUTO 28011G16KT 10SM CLR 17/M03 A3011 RMK AO1 TSNO Follow K42J on AV Mobile KEYSTONE HEIGHTS 124.275 352-473-8273
KLCQFAA ID LCQ, AWOS-3, KLCQ 281835Z AUTO 30012G17KT 10SM CLR 16/00 A3013 RMK AO2 Follow KLCQ on AV Mobile LAKE CITY 120.675 386-754-9366
X07FAA ID X07, AWOS-3, KTEX 070640Z AUTO 15005KT 10SM CLR 02/M16 A3038 RMK AO2 T00201164 Follow  on AV Mobile LAKE WALES 124.225 863-678-1334
KX81ICAO ID KX81 Lake Worth Inlet
KLALFAA ID LAL, AWOS-3PT, KLAL 281750Z 29015G27KT 15SM SCT250 18/05 A3017 Follow KLAL on AV Mobile Lakeland Regional 118.025 863-834-2030
KLEEFAA ID LEE, ASOS, KLEE 281753Z 29009KT 10SM CLR 18/01 A3016 RMK AO2 SLP211 T01830011 10183 20100 58007 Follow KLEE on AV Mobile LEESBURG REGIONAL AIRPORT 134.325 352-787-1565
24JFAA ID 24J, AWOS-3, KTEX 070640Z AUTO 15005KT 10SM CLR 02/M16 A3038 RMK AO2 T00201164 Follow  on AV Mobile LIVE OAK 118.225 386-362-1731
KX88ICAO ID KX88 Marathon Coast Guard Station
KMTHFAA ID MTH, ASOS, KMTH 281753Z AUTO 01009KT 10SM CLR 22/12 A3016 RMK AO2 SLP212 T02170117 10217 20194 58001 Follow KMTH on AV Mobile MARATHON AIRPORT 135.525 305-743-8373
KMKYFAA ID MKY, AWOS-3, KMKY 281835Z AUTO 31013G17KT 10SM CLR 21/08 A3016 RMK AO1 Follow KMKY on AV Mobile MARCO ISLAND 120.075 239-394-8187
KMAIFAA ID MAI, ASOS, KMAI 281753Z AUTO 29010KT 10SM CLR 14/M03 A3022 RMK AO2 RAB02E12 SLP231 P0000 60000 T01441033 10150 20033 58006 Follow KMAI on AV Mobile MARIANNA MUNICIPAL AIRPORT 133.525 850-482-6082
KHRTFAA ID HRT, KHRT 281758Z AUTO 33009KT 10SM CLR 16/M05 A3021 RMK AO2 SLP232 T01611052 10161 20051 55012 $ Follow KHRT on AV Mobile Hurlburt Field
KNRBFAA ID NRB, KNRB 281752Z AUTO 28009G17KT 10SM CLR 16/01 A3012 RMK AO2 SLP199 6//// T01560011 10156 20089 58013 PNO $ Follow KNRB on AV Mobile MAYPORT NAVAL AIR FACILITY
KMLBFAA ID MLB, ASOS, KMLB 281753Z 28011G17KT 10SM CLR 19/01 A3013 Follow KMLB on AV Mobile MELBOURNE INTERNATIONAL 321-723-7403
KCOIFAA ID COI, AWOS-3 Merritt Island, Merritt Island Airport 119.025 321-986-8864
KTNTFAA ID TNT, AWOS-3 MIAMI 119.075 (239) 695-9198
KX87ICAO ID KX87 Miami Beach Coast Guard Station
KAMXICAO ID KAMX Miami Nexrad
KTMBFAA ID TMB, ASOS, KTMB 281753Z 33015KT 10SM CLR 23/07 A3015 Follow KTMB on AV Mobile KENDALL-TAMIAMI EXEC AIRPORT 305-235-1332
KMIAFAA ID MIA, ASOS, KMIA 281753Z 32010G17KT 10SM BKN250 22/05 A3014 Follow KMIA on AV Mobile MIAMI INTERNATIONAL AIRPORT 305-870-0235
KOPFFAA ID OPF, KOPF 281753Z 33011G19KT 10SM CLR 22/06 A3015 Follow KOPF on AV Mobile MIAMI OPA LOCKA AIRPORT
KNFJFAA ID NFJ CHOCTAW, WHITING FIELD, NOLF
KNSEFAA ID NSE, KNSE 281756Z AUTO VRB06KT 10SM CLR 14/M02 A3023 RMK AO2 SLP224 T01441017 10150 20028 58010 $ Follow KNSE on AV Mobile MILTON WHITING FIELD (NORTH)
KNDZFAA ID NDZ, KNDZ 281756Z AUTO 33011G17KT 10SM CLR 17/M01 A3023 RMK AO2 SLP225 T01671011 10172 20039 58010 $ Follow KNDZ on AV Mobile MILTON WHITING FIELD (SOUTH)
KAPFFAA ID APF, ASOS, KAPF 281753Z 34012G17KT 10SM CLR 21/08 A3017 Follow KAPF on AV Mobile NAPLES MUNICIPAL AIRPORT 239-643-9886
KRRFICAO ID KRRF New Port Richey, Tampa Bay Executive Airport
KEVBFAA ID EVB, AWOS-3, KEVB 281747Z 29007KT 10SM SKC 18/00 A3015 Follow KEVB on AV Mobile New Smyrna Beach, New Smyrna Beach Municipal Airport 124.625 386-409-4705
KOCFFAA ID OCF, AWOS-3, KOCF 281750Z 32010G14KT 10SM CLR 17/00 A3016 Follow KOCF on AV Mobile Ocala, Ocala International Airport-Jim Taylor Field 128.125 352-237-8525
KOBEFAA ID OBE, AWOS-3, KOBE 281835Z AUTO 33011G17KT 10SM CLR 20/06 A3015 RMK AO2 Follow KOBE on AV Mobile Okeechobee County Airport 118.675 863-467-1148
KORLFAA ID ORL, ASOS, KORL 281753Z 29017G23KT 10SM CLR 18/01 A3015 RMK AO2 SLP214 T01780006 10183 20117 58006 Follow KORL on AV Mobile ORLANDO EXECUTIVE AIRPORT 407-658-6753
KMCOFAA ID MCO, ASOS, KMCO 281753Z 31012G18KT 10SM BKN300 18/02 A3015 Follow KMCO on AV Mobile ORLANDO INTERNATIONAL AIRPORT 407-855-5235
KSFBFAA ID SFB, ASOS, KSFB 281753Z 26010G16KT 10SM CLR 19/02 A3014 Follow KSFB on AV Mobile ORLANDO SANFORD AIRPORT 407-321-9384
KISMFAA ID ISM, AWOS-3, KISM 281750Z 31010KT 10SM SKC 18/01 A3016 Follow KISM on AV Mobile Orlando, Kissimmee Municipal Airport 128.775 407-847-0533
KOMNFAA ID OMN, AWOS-3, KOMN 281750Z 29011G16KT 10SM SKC 17/02 A3014 Follow KOMN on AV Mobile Ormond Beach, Ormond Beach Municipal Airport 118.475 386-615-7084
28JFAA ID 28J, AWOS-3, KTEX 070640Z AUTO 15005KT 10SM CLR 02/M16 A3038 RMK AO2 T00201164 Follow  on AV Mobile PALATKA 119.92 386-312-2212
KXFLFAA ID XFL, AWOS-3, KXFL 132150Z VRB03KT 7SM CLR 21/18 A2999 Follow KXFL on AV Mobile PALM COAST 128.325 386-437-7334
KECPFAA ID ECP, ASOS, KECP 281753Z 32016G22KT 10SM CLR 16/M01 A3021 Follow KECP on AV Mobile PANAMA CITY 119.975 850-235-7857
KPFNICAO ID KPFN, KPFN 030253Z VRB03KT 10SM FEW023 25/23 A2989 Follow KPFN on AV Mobile PANAMA CITY-BAY CTY INTERNATIONAL
KPAMFAA ID PAM, KPAM 281758Z AUTO 33008G17KT 10SM CLR 15/01 A3021 RMK AO2 SLP233 T01520006 10154 20072 58012 $ Follow KPAM on AV Mobile Tyndall Air Force Base
KPNSFAA ID PNS, ASOS, KPNS 281753Z 34007KT 290V360 10SM CLR 15/M01 A3023 Follow KPNS on AV Mobile PENSACOLA REGIONAL AIRPORT 850-436-4799
KNPAFAA ID NPA, KNPA 281756Z 33005KT 10SM SCT250 16/01 A3023 RMK AO2 SLP238 T01560011 10161 20050 58009 Follow KNPA on AV Mobile Pensacola, Naval Air Station
K40JFAA ID 40J, AWOS-3PT, K40J 281835Z AUTO 28015G21KT 10SM CLR 16/M01 A3017 RMK AO2 T01621007 Follow K40J on AV Mobile PERRY-FOLEY AIRPORT 118.375 850-838-3526
FA54FAA ID FA54, Belfort CORAL CREEK
KPCMFAA ID PCM, AWOS-3, KPCM 281835Z AUTO 33010KT 10SM CLR 20/07 A3018 RMK AO2 Follow KPCM on AV Mobile Plant City, Plant City Municipal Airport 120.025 813-764-8259
KPMPFAA ID PMP, ASOS, KPMP 281753Z 31019G23KT 10SM BKN250 22/06 A3015 RMK AO2 PK WND 33026/1724 SLP209 T02220061 10222 20161 58001 Follow KPMP on AV Mobile POMPANO BEACH AIRPARK 954-783-3720
K1J3ICAO ID K1J3 Ponce De Leon Inlet
KPGDFAA ID PGD, ASOS, KPGD 281753Z 35008KT 10SM CLR 21/08 A3018 RMK AO2 SLP221 T02060083 10211 20128 58005 Follow KPGD on AV Mobile PUNTA GORDA CHARLOTTE COUNTY 135.675 941-639-0076
K1J5ICAO ID K1J5 Santa Rosa Coast Guard Station
KSRQFAA ID SRQ, ASOS, KSRQ 281753Z 33018G25KT 10SM CLR 20/05 A3017 Follow KSRQ on AV Mobile SARASOTA/BRADENTON INTERNATIONAL . 124.375 941-359-0117
KSEFFAA ID SEF, AWOS-3 SEBRING 119.475 863-655-6424
KSGJFAA ID SGJ, AWOS-3, KSGJ 281758Z 28012G18KT 240V310 10SM CLR 17/00 A3012 RMK AO2 SLP199 T01670000 10172 20083 58010 Follow KSGJ on AV Mobile St. Augustine, St. Augustine Airport 904-824-7084
KPIEFAA ID PIE, ASOS, KPIE 281753Z 32016G23KT 10SM CLR 19/06 A3019 Follow KPIE on AV Mobile ST PETERSBURG/CLEARWATER 727-531-3456
KSPGFAA ID SPG, ASOS, KSPG 281753Z 32014G26KT 10SM CLR 19/02 A3017 RMK AO2 PK WND 32026/1750 SLP215 T01890022 10189 20150 58001 Follow KSPG on AV Mobile ST PETERSBURG WHITTED AIRPORT 118.875 727-821-4334
KSUAFAA ID SUA, AWOS-3, KSUA 281747Z 32015G21KT 7SM SCT030 BKN070 19/02 A3016 Follow KSUA on AV Mobile Stuart, Witham Field Airport 772-692-7399
KTLHFAA ID TLH, ASOS, KTLH 281753Z 30012G19KT 10SM FEW250 16/M02 A3020 Follow KTLH on AV Mobile TALLAHASSEE REGIONAL AIRPORT 850-576-3665
KTBWICAO ID KTBW Tampa Bay Area
KMCFFAA ID MCF, KMCF 281758Z AUTO 33013G17KT 10SM CLR 20/05 A3019 RMK AO2 SLP226 T01970049 10198 20112 58001 Follow KMCF on AV Mobile Macdill Air Force Base, Fl.
KTPAFAA ID TPA, ASOS, KTPA 281753Z 31014G21KT 10SM BKN270 19/02 A3018 Follow KTPA on AV Mobile TAMPA INTERNATIONAL AIRPORT 813-873-7228
KTPFFAA ID TPF, AWOS-3, KTPF 281835Z AUTO 34007G18KT 10SM CLR 20/03 A3018 RMK AO2 Follow KTPF on AV Mobile Tampa, Peter O Knight Airport 118.925 813-251-6824
KVDFFAA ID VDF, AWOS-3, KVDF 281835Z AUTO 32012G20KT 10SM CLR 20/05 A3017 RMK AO2 Follow KVDF on AV Mobile Tampa, Vandenberg Airport 121.125 813-630-0924
KVLGICAO ID KVLG The Villages
KVVGICAO ID KVVG, KVVG 281835Z AUTO 25007G13KT 230V290 7SM 18/00 A3004 RMK A01 Follow KVVG on AV Mobile The Villages
KX68ICAO ID KX68 Titusville, NASA Shuttle Landing Facility
KTIXFAA ID TIX, KTIX 281750Z 29015KT 7SM SCT120 18/02 A3014 Follow KTIX on AV Mobile Titusville
KX21FAA ID X21, AWOS-3 Titusville, Arthur Dunn Air Park 119.725 321-385-0383
KTTSFAA ID TTS, KTTS 281758Z AUTO 30006KT 10SM FEW170 18/04 A3012 RMK AO2 SLP204 T01800035 10180 20118 58008 Follow KTTS on AV Mobile Titusville, NASA Shuttle Landing Facility
KVPSFAA ID VPS, KVPS 281755Z 02008KT 10SM SCT230 16/M04 A3021 RMK AO2A SLP237 T01591039 10160 20047 55012 $ Follow KVPS on AV Mobile Valparaiso / Eglin Air Force Base
KVNCFAA ID VNC, AWOS-3, KVNC 281835Z AUTO 33016G22KT 10SM CLR 19/07 A3019 RMK AO2 Follow KVNC on AV Mobile VENICE 119.275
KX90ICAO ID KX90 Venice Long Range Navigation
KVRBFAA ID VRB, ASOS, KVRB 281753Z 30011G20KT 10SM CLR 20/00 A3014 Follow KVRB on AV Mobile VERO BEACH MUNICIPAL AIRPORT 772-978-9535
F45FAA ID F45, AWOS-3, KTEX 070640Z AUTO 15005KT 10SM CLR 02/M16 A3038 RMK AO2 T00201164 Follow  on AV Mobile WEST PALM BEACH 119.975 561-630-6932
KLNAFAA ID LNA, AWOS-3 WEST PALM BEACH 119.925 561-964-0308
KPBIFAA ID PBI, ASOS, KPBI 281753Z 32012G20KT 10SM FEW120 BKN200 21/06 A3014 Follow KPBI on AV Mobile PALM BEACH INTERNATIONAL 123.75 561-683-2548
FD38FAA ID FD38, Belfort WELLINGTON AERO CLUB
X60FAA ID X60, AWOS-3, KTEX 070640Z AUTO 15005KT 10SM CLR 02/M16 A3038 RMK AO2 T00201164 Follow  on AV Mobile WILLISTON 118.425 352-528-9949
KGIFFAA ID GIF, ASOS, KGIF 281753Z AUTO 33015G22KT 10SM CLR 19/02 A3017 RMK AO2 SLP217 T01890022 10194 20117 58006 Follow KGIF on AV Mobile WINTER HAVENS GILBERT AIRPORT 133.675 863-956-2097
KZPHFAA ID ZPH, ASOS, KZPH 281835Z AUTO 29014G26KT 10SM CLR 18/01 A3018 RMK AO2 Follow KZPH on AV Mobile ZEPHYRHILLS 118.975 813-780-0031

Click on the AV Mobile icon AV Mobile icon by any station to follow that AWOS feed on AirportView.net Mobile.

Garmin aera 796 $1999 at Avionics Specialists LLC
Bose A20 Aviation Headsets $995 at Avionics Specialists LLC